General Rafael Buelna International Airport
MMMZ : now visible

Airfield :











YOU CAN JOIN US ON...

 
LOGIN :

Register | Disclaimer

   EN    FR    IT 

 









Legend :    VFR   Marginal VFR   IFR   Intensive IFR   Very Intensive IFR
Visi :
Ceiling :
>= 8 km
>= 3000ft
5 to 8 km
1000 to 3000 ft
1500m to 5 km
500 to 1000 ft
800 to 1500m
200 to 500 ft
< 800m
< 200 ft
Symbols :   Thunderstorms  Fog  Heavy snow  Heavy precipitations  Wind > 20 kt






- Airport Elevation : 38 ft
- IATA code : MZT


MMMZ - General Rafael Buelna International

CURRENT METAR :
  • 261743Z 23006KT 15SM FEW025 SCT090 BKN240 28/19 A2987 RMK SLP110 57003 904 8/132

EXPIRED METARs :
  • 261642Z 20007KT 15SM SCT090 BKN240 28/19 A2987 RMK 8/032
  • 261545Z 00000KT 15SM FEW028 SCT090 SCT240 27/19 A2988 RMK 8/532

TAF TAF MMMZ
Valid from the 26 at 18:00 until the 28 at 00:00 UTC


261650Z 2618/2724 20010KT P6SM BKN250 TX27/2620Z TN24/2712Z
FM270500 24005KT 6SM HZ SCT015 BKN250
TEMPO 2712/2716 2SM BR OVC010
FM271800 22010KT P6SM BKN250
MMFR FIR / North America



MET'MAP, your aeronautical weather chart ! - Copyright ORBIFLY December 2007 - Disclaimer

ORBIFLY MET'MAP TEAM :

Programming & Development : Alexandra Zaïnal
Concept & original design : Baudouin d'Aumeries
Assistance for programming : Marc-Olivier Méhu
Technical & hardware support : Manuel Goepfert

Contact : metmap@orbifly.com




SOURCES & CREDITS :

   NOAA       Earth
Advisory